createdAt,value
2022-12-17T00:00:11.751Z,42
2022-12-17T00:01:41.863Z,42.2
2022-12-17T00:03:12.130Z,42.8
2022-12-17T00:04:42.159Z,42.1
2022-12-17T00:06:12.337Z,42.8
2022-12-17T00:07:42.488Z,42.3
2022-12-17T00:09:12.633Z,43.3
2022-12-17T00:10:42.821Z,42.4
2022-12-17T00:12:12.978Z,42.3
2022-12-17T00:13:43.132Z,42.3
2022-12-17T00:15:13.318Z,42.5
2022-12-17T00:16:43.472Z,42.3
2022-12-17T00:18:13.627Z,42.2
2022-12-17T00:19:43.784Z,42.2
2022-12-17T00:21:13.961Z,42.4
2022-12-17T00:22:44.121Z,41.1
2022-12-17T00:24:14.279Z,42.4
2022-12-17T00:25:44.729Z,42.1
2022-12-17T00:27:14.609Z,42.4
2022-12-17T00:28:44.764Z,43
2022-12-17T00:30:14.919Z,42.2
2022-12-17T00:31:45.203Z,42.3
2022-12-17T00:33:15.264Z,42.4
2022-12-17T00:34:45.415Z,41.5
2022-12-17T00:36:15.596Z,42.3
2022-12-17T00:37:45.745Z,41.8
2022-12-17T00:39:15.902Z,42.2
2022-12-17T00:40:46.053Z,43
2022-12-17T00:42:16.240Z,42.1
2022-12-17T00:43:46.388Z,42.5
2022-12-17T00:45:16.600Z,42.2
2022-12-17T00:46:46.830Z,42.3
2022-12-17T00:48:16.956Z,42.5
2022-12-17T00:49:47.088Z,42.3
2022-12-17T00:51:17.240Z,42.3
2022-12-17T00:52:47.425Z,42.1
2022-12-17T00:54:17.579Z,42.5
2022-12-17T00:55:47.731Z,42.1
2022-12-17T00:57:17.911Z,42.1
2022-12-17T00:58:48.069Z,42.2
2022-12-17T01:00:18.225Z,42
2022-12-17T01:01:48.609Z,41.1
2022-12-17T01:03:18.596Z,42.2
2022-12-17T01:04:48.751Z,42.2
2022-12-17T01:06:18.886Z,42
2022-12-17T01:07:49.064Z,41
2022-12-17T01:09:19.223Z,42
2022-12-17T01:10:49.376Z,41.6
2022-12-17T01:12:19.553Z,42.2
2022-12-17T01:13:49.702Z,42
2022-12-17T01:15:19.857Z,41.9
2022-12-17T01:16:50.101Z,42.8
2022-12-17T01:18:20.197Z,42
2022-12-17T01:19:50.382Z,42.4
2022-12-17T01:21:20.513Z,42.2
2022-12-17T01:22:50.711Z,42.2
2022-12-17T01:24:20.875Z,41.9
2022-12-17T01:25:51.015Z,42.8
2022-12-17T01:27:21.192Z,42.1
2022-12-17T01:28:51.349Z,41.7
2022-12-17T01:30:21.499Z,41.6
2022-12-17T01:31:51.668Z,43
2022-12-17T01:33:21.829Z,41.9
2022-12-17T01:34:51.991Z,42
2022-12-17T01:36:22.164Z,42
2022-12-17T01:37:52.325Z,42
2022-12-17T01:39:22.479Z,41.6
2022-12-17T01:40:52.635Z,42
2022-12-17T01:42:22.822Z,42
2022-12-17T01:43:52.972Z,42.5
2022-12-17T01:45:23.180Z,42
2022-12-17T01:46:53.284Z,42
2022-12-17T01:48:23.470Z,41.2
2022-12-17T01:49:53.630Z,42.1
2022-12-17T01:51:23.812Z,41.9
2022-12-17T01:52:53.963Z,42
2022-12-17T01:54:24.124Z,40.9
2022-12-17T01:55:54.278Z,41.9
2022-12-17T01:57:24.434Z,41.9
2022-12-17T01:58:54.604Z,41.9
2022-12-17T02:00:24.765Z,42.3
2022-12-17T02:01:55.142Z,41.9
2022-12-17T02:03:25.165Z,42.2
2022-12-17T02:04:55.245Z,42
2022-12-17T02:06:25.401Z,42.6
2022-12-17T02:07:55.602Z,41.9
2022-12-17T02:09:25.729Z,41.9
2022-12-17T02:10:56.532Z,41.9
2022-12-17T02:12:26.040Z,41.9
2022-12-17T02:13:56.218Z,41.9
2022-12-17T02:15:26.374Z,42.5
2022-12-17T02:16:56.558Z,41.9
2022-12-17T02:18:26.710Z,41.9
2022-12-17T02:19:56.865Z,43.8
2022-12-17T02:21:27.025Z,41.9
2022-12-17T02:22:57.199Z,40.6
2022-12-17T02:24:27.374Z,42
2022-12-17T02:25:57.598Z,41.5
2022-12-17T02:27:27.748Z,42.1
2022-12-17T02:28:57.924Z,42
2022-12-17T02:30:28.080Z,41.6
2022-12-17T02:31:58.336Z,42
2022-12-17T02:33:28.416Z,41.9
2022-12-17T02:34:58.571Z,42.1
2022-12-17T02:36:28.724Z,42
2022-12-17T02:37:58.911Z,41.8
2022-12-17T02:39:29.061Z,43.3
2022-12-17T02:40:59.246Z,41.7
2022-12-17T02:42:29.368Z,41.1
2022-12-17T02:43:59.549Z,41.9
2022-12-17T02:45:29.758Z,43.3
2022-12-17T02:46:59.866Z,41.9
2022-12-17T02:48:30.031Z,41.6
2022-12-17T02:50:00.196Z,41.9
2022-12-17T02:51:30.358Z,42.7
2022-12-17T02:53:00.507Z,41.9
2022-12-17T02:54:30.695Z,43.3
2022-12-17T02:56:00.858Z,41.7
2022-12-17T02:57:31.038Z,42.3
2022-12-17T02:59:01.196Z,42
2022-12-17T03:00:31.353Z,41.8
2022-12-17T03:02:01.737Z,41.7
2022-12-17T03:03:31.798Z,42.4
2022-12-17T03:05:15.169Z,41.8
2022-12-17T03:06:32.038Z,42
2022-12-17T03:08:02.188Z,41.9
2022-12-17T03:09:32.370Z,41.9
2022-12-17T03:11:02.522Z,42.4
2022-12-17T03:12:32.677Z,42
2022-12-17T03:14:02.903Z,41.9
2022-12-17T03:15:33.017Z,42.1
2022-12-17T03:17:03.178Z,42
2022-12-17T03:18:33.412Z,41.3
2022-12-17T03:20:03.587Z,42.2
2022-12-17T03:21:33.723Z,42
2022-12-17T03:23:03.873Z,41.4
2022-12-17T03:24:34.052Z,41.9
2022-12-17T03:26:04.205Z,42.5
2022-12-17T03:27:34.363Z,41.6
2022-12-17T03:29:04.541Z,42.4
2022-12-17T03:30:36.448Z,43.5
2022-12-17T03:32:04.849Z,41.9
2022-12-17T03:33:35.543Z,42
2022-12-17T03:35:05.228Z,42
2022-12-17T03:36:35.345Z,42
2022-12-17T03:38:05.503Z,42.6
2022-12-17T03:39:35.685Z,41.9
2022-12-17T03:41:05.840Z,42
2022-12-17T03:42:36.002Z,41.9
2022-12-17T03:44:06.191Z,41.9
2022-12-17T03:45:36.395Z,41.8
2022-12-17T03:47:06.528Z,41.7
2022-12-17T03:48:36.660Z,41.3
2022-12-17T03:50:06.841Z,41.6
2022-12-17T03:51:36.995Z,41.4
2022-12-17T03:53:07.149Z,40.8
2022-12-17T03:54:37.325Z,41.6
2022-12-17T03:56:07.486Z,41.8
2022-12-17T03:57:37.639Z,41.6
2022-12-17T03:59:07.828Z,41.6
2022-12-17T04:00:37.984Z,41.6
2022-12-17T04:02:08.322Z,42
2022-12-17T04:03:38.732Z,41.6
2022-12-17T04:05:08.470Z,41.6
2022-12-17T04:06:38.616Z,41.3
2022-12-17T04:08:08.776Z,41.7
2022-12-17T04:09:38.957Z,40.2
2022-12-17T04:11:09.105Z,42
2022-12-17T04:12:39.265Z,41.2
2022-12-17T04:14:09.416Z,41.7
2022-12-17T04:15:39.607Z,42.3
2022-12-17T04:17:09.772Z,42.1
2022-12-17T04:18:39.923Z,42.3
2022-12-17T04:20:10.097Z,41.9
2022-12-17T04:21:40.251Z,42.3
2022-12-17T04:23:10.401Z,41.7
2022-12-17T04:24:40.553Z,42.6
2022-12-17T04:26:10.705Z,41.8
2022-12-17T04:27:40.880Z,41.7
2022-12-17T04:29:11.042Z,39.3
2022-12-17T04:30:41.243Z,41.8
2022-12-17T04:32:11.379Z,41.2
2022-12-17T04:33:41.534Z,41.7
2022-12-17T04:35:11.716Z,41.7
2022-12-17T04:36:41.839Z,41.7
2022-12-17T04:38:12.019Z,42.3
2022-12-17T04:39:42.174Z,41.8
2022-12-17T04:41:12.337Z,42.4
2022-12-17T04:42:42.515Z,41.4
2022-12-17T04:44:12.675Z,40.7
2022-12-17T04:45:42.824Z,41.9
2022-12-17T04:47:12.975Z,42.5
2022-12-17T04:48:43.156Z,41.7
2022-12-17T04:50:13.309Z,41.6
2022-12-17T04:51:43.492Z,41.7
2022-12-17T04:53:13.650Z,41.7
2022-12-17T04:54:43.809Z,41.6
2022-12-17T04:56:13.957Z,41.5
2022-12-17T04:57:44.146Z,41.6
2022-12-17T04:59:14.294Z,41.7
2022-12-17T05:00:44.447Z,41.5
2022-12-17T05:02:14.749Z,41.6
2022-12-17T05:03:44.852Z,41.5
2022-12-17T05:05:14.951Z,41.7
2022-12-17T05:06:45.107Z,41.7
2022-12-17T05:08:15.286Z,41.8
2022-12-17T05:09:45.437Z,41.9
2022-12-17T05:11:15.594Z,42
2022-12-17T05:12:45.747Z,41
2022-12-17T05:14:15.925Z,41.6
2022-12-17T05:15:49.851Z,39.9
2022-12-17T05:17:16.229Z,41.6
2022-12-17T05:18:46.412Z,42
2022-12-17T05:20:16.577Z,41.7
2022-12-17T05:21:46.719Z,42.3
2022-12-17T05:23:16.867Z,41.6
2022-12-17T05:24:47.070Z,41.8
2022-12-17T05:26:17.210Z,40.8
2022-12-17T05:27:47.364Z,41.5
2022-12-17T05:29:17.545Z,41.6
2022-12-17T05:30:47.759Z,41.7
2022-12-17T05:32:17.857Z,41.5
2022-12-17T05:33:48.016Z,41.7
2022-12-17T05:35:18.189Z,40.8
2022-12-17T05:36:48.346Z,41.9
2022-12-17T05:38:18.502Z,41
2022-12-17T05:39:48.773Z,41.6
2022-12-17T05:41:18.828Z,42.5
2022-12-17T05:42:48.979Z,41.5
2022-12-17T05:44:19.162Z,42.5
2022-12-17T05:45:49.318Z,41.4
2022-12-17T05:47:19.522Z,42.3
2022-12-17T05:48:49.678Z,41.5
2022-12-17T05:50:19.860Z,41.6
2022-12-17T05:51:50.016Z,41.5
2022-12-17T05:53:20.171Z,41.5
2022-12-17T05:54:50.353Z,41.5
2022-12-17T05:56:20.529Z,41.6
2022-12-17T05:57:56.123Z,41.6
2022-12-17T05:59:20.815Z,41.4
2022-12-17T06:00:51.007Z,41.5
2022-12-17T06:02:21.251Z,42
2022-12-17T06:03:51.470Z,41.6
2022-12-17T06:05:21.503Z,41.4
2022-12-17T06:06:51.656Z,41.5
2022-12-17T06:08:21.825Z,42
2022-12-17T06:09:51.991Z,41.5
2022-12-17T06:11:22.144Z,40.7
2022-12-17T06:12:52.325Z,41.5
2022-12-17T06:14:22.449Z,40.9
2022-12-17T06:15:52.696Z,41.4
2022-12-17T06:17:22.790Z,41.4
2022-12-17T06:18:52.943Z,41
2022-12-17T06:20:23.122Z,41.9
2022-12-17T06:21:53.278Z,41.4
2022-12-17T06:23:23.429Z,41.4
2022-12-17T06:24:53.607Z,41.3
2022-12-17T06:26:23.764Z,41.5
2022-12-17T06:27:53.939Z,41.5
2022-12-17T06:29:24.097Z,41.5
2022-12-17T06:30:54.254Z,41.3
2022-12-17T06:32:24.398Z,41.2
2022-12-17T06:33:54.559Z,41.4
2022-12-17T06:35:24.751Z,41.3
2022-12-17T06:36:54.908Z,42.3
2022-12-17T06:38:25.060Z,41.3
2022-12-17T06:39:55.217Z,41.3
2022-12-17T06:41:25.392Z,41.1
2022-12-17T06:42:55.544Z,41.7
2022-12-17T06:44:25.700Z,41.1
2022-12-17T06:45:55.909Z,41.3
2022-12-17T06:47:26.037Z,41.2
2022-12-17T06:48:56.189Z,40.3
2022-12-17T06:50:26.388Z,41.1
2022-12-17T06:51:56.540Z,41.3
2022-12-17T06:53:26.700Z,40.7
2022-12-17T06:54:56.838Z,40.7
2022-12-17T06:56:27.025Z,40.9
2022-12-17T06:57:57.245Z,41.2
2022-12-17T06:59:27.339Z,41
2022-12-17T07:00:57.609Z,41.8
2022-12-17T07:02:27.732Z,41
2022-12-17T07:03:57.825Z,40.9
2022-12-17T07:05:28.007Z,40.8
2022-12-17T07:06:58.186Z,41.3
2022-12-17T07:08:28.336Z,40.7
2022-12-17T07:09:58.488Z,40.8
2022-12-17T07:11:28.710Z,40.8
2022-12-17T07:12:58.824Z,40.8
2022-12-17T07:14:28.979Z,40.8
2022-12-17T07:15:59.223Z,40.8
2022-12-17T07:17:29.443Z,40.8
2022-12-17T07:18:59.475Z,41.4
2022-12-17T07:20:29.637Z,41
2022-12-17T07:21:59.806Z,41
2022-12-17T07:23:29.965Z,41.6
2022-12-17T07:25:00.145Z,41.1
2022-12-17T07:26:30.299Z,40.8
2022-12-17T07:28:00.449Z,41.2
2022-12-17T07:29:30.610Z,40.9
2022-12-17T07:31:00.785Z,40.9
2022-12-17T07:32:30.947Z,41.6
2022-12-17T07:34:01.129Z,41
2022-12-17T07:35:31.255Z,41
2022-12-17T07:37:01.432Z,41
2022-12-17T07:38:31.591Z,41.2
2022-12-17T07:40:01.743Z,40.5
2022-12-17T07:41:31.937Z,41
2022-12-17T07:43:02.089Z,40.2
2022-12-17T07:44:32.241Z,40
2022-12-17T07:46:02.459Z,39.7
2022-12-17T07:47:32.575Z,40.6
2022-12-17T07:49:02.736Z,39.6
2022-12-17T07:50:32.978Z,39.9
2022-12-17T07:52:03.069Z,38.8
2022-12-17T07:53:33.416Z,38.8
2022-12-17T07:55:03.399Z,38.5
2022-12-17T07:56:33.571Z,39.8
2022-12-17T07:58:03.723Z,39.1
2022-12-17T07:59:33.879Z,40.3
2022-12-17T08:01:04.099Z,38.4
2022-12-17T08:02:34.334Z,38.7
2022-12-17T08:04:04.398Z,38.8
2022-12-17T08:05:34.576Z,39.5
2022-12-17T08:07:09.453Z,38.5
2022-12-17T08:08:34.905Z,39.8
2022-12-17T08:10:05.059Z,38.9
2022-12-17T08:11:35.211Z,39
2022-12-17T08:13:08.364Z,39
2022-12-17T08:14:35.534Z,39.7
2022-12-17T08:16:05.850Z,39
2022-12-17T08:17:35.908Z,38.2
2022-12-17T08:19:06.065Z,39.4
2022-12-17T08:20:36.220Z,39.4
2022-12-17T08:22:06.561Z,39.7
2022-12-17T08:23:36.745Z,39.4
2022-12-17T08:25:06.718Z,39.6
2022-12-17T08:26:36.861Z,39.4
2022-12-17T08:28:11.006Z,39.9
2022-12-17T08:29:37.249Z,40.3
2022-12-17T08:31:07.504Z,39.8
2022-12-17T08:32:37.598Z,39.9
2022-12-17T08:34:08.312Z,40
2022-12-17T08:35:37.907Z,40
2022-12-17T08:37:08.063Z,39.7
2022-12-17T08:38:38.273Z,40.1
2022-12-17T08:40:08.399Z,40.6
2022-12-17T08:41:38.553Z,40.1
2022-12-17T08:43:08.723Z,40.3
2022-12-17T08:44:38.872Z,40.4
2022-12-17T08:46:09.110Z,40.8
2022-12-17T08:47:39.208Z,40.2
2022-12-17T08:49:09.373Z,40.7
2022-12-17T08:50:39.525Z,40.5
2022-12-17T08:52:09.675Z,40.6
2022-12-17T08:53:40.160Z,40.6
2022-12-17T08:55:10.245Z,40.9
2022-12-17T08:56:40.192Z,40.7
2022-12-17T08:58:10.379Z,39.4
2022-12-17T08:59:40.535Z,41.4
2022-12-17T09:01:10.763Z,41.7
2022-12-17T09:02:41.088Z,40.7
2022-12-17T09:04:11.037Z,41.2
2022-12-17T09:05:41.189Z,41.3
2022-12-17T09:07:11.351Z,41.9
2022-12-17T09:08:41.526Z,41.4
2022-12-17T09:10:11.681Z,41.4
2022-12-17T09:11:41.981Z,42
2022-12-17T09:13:12.008Z,41.9
2022-12-17T09:14:42.167Z,41.5
2022-12-17T09:16:12.398Z,41.7
2022-12-17T09:17:42.474Z,41.7
2022-12-17T09:19:12.659Z,41.7
2022-12-17T09:20:42.818Z,40.9
2022-12-17T09:22:12.975Z,41.8
2022-12-17T09:23:43.152Z,41.5
2022-12-17T09:25:13.314Z,41.5
2022-12-17T09:26:43.478Z,41.3
2022-12-17T09:28:13.676Z,41.4
2022-12-17T09:29:43.823Z,41.4
2022-12-17T09:31:14.001Z,41.3
2022-12-17T09:32:44.153Z,41.6
2022-12-17T09:34:14.333Z,41.5
2022-12-17T09:35:44.498Z,41.3
2022-12-17T09:37:14.649Z,41.7
2022-12-17T09:38:44.826Z,41.4
2022-12-17T09:40:14.977Z,42.7
2022-12-17T09:41:45.133Z,41.4
2022-12-17T09:43:15.288Z,41.3
2022-12-17T09:44:45.490Z,41.6
2022-12-17T09:46:15.698Z,41.7
2022-12-17T09:47:45.776Z,41.5
2022-12-17T09:49:15.955Z,41.3
2022-12-17T09:50:46.114Z,43
2022-12-17T09:52:16.274Z,41.5
2022-12-17T09:53:46.418Z,41.5
2022-12-17T09:55:16.595Z,41.5
2022-12-17T09:56:46.748Z,42.5
2022-12-17T09:58:16.906Z,41.5
2022-12-17T09:59:47.096Z,42.2
2022-12-17T10:01:17.432Z,42.8
2022-12-17T10:02:47.569Z,41.5
2022-12-17T10:04:17.592Z,41.7
2022-12-17T10:05:47.738Z,42.7
2022-12-17T10:07:17.894Z,42
2022-12-17T10:08:48.052Z,42
2022-12-17T10:10:18.311Z,41.5
2022-12-17T10:11:48.401Z,41.7
2022-12-17T10:13:18.556Z,41.4
2022-12-17T10:14:48.730Z,41.7
2022-12-17T10:16:19.016Z,41.6
2022-12-17T10:17:49.040Z,41.9
2022-12-17T10:19:19.197Z,41.6
2022-12-17T10:20:49.379Z,41.4
2022-12-17T10:22:19.528Z,41.7
2022-12-17T10:23:49.683Z,41.2
2022-12-17T10:25:19.867Z,41.5
2022-12-17T10:26:50.022Z,41.6
2022-12-17T10:28:20.178Z,41.3
2022-12-17T10:29:50.358Z,41.5
2022-12-17T10:31:20.569Z,37.3
2022-12-17T10:32:50.691Z,38.2
2022-12-17T10:34:20.830Z,39.8
2022-12-17T10:35:51.007Z,40
2022-12-17T10:37:21.178Z,41
2022-12-17T10:38:51.337Z,39.6
2022-12-17T10:40:21.512Z,39.9
2022-12-17T10:41:51.664Z,37.5
2022-12-17T10:43:21.821Z,38.8
2022-12-17T10:44:52.000Z,39.2
2022-12-17T10:46:22.246Z,38.7
2022-12-17T10:47:52.349Z,39.6
2022-12-17T10:49:22.469Z,39.2
2022-12-17T10:50:52.659Z,40.1
2022-12-17T10:52:22.808Z,41.2
2022-12-17T10:53:52.963Z,40.5
2022-12-17T10:55:23.140Z,39.2
2022-12-17T10:56:53.312Z,41
2022-12-17T10:58:23.463Z,40
2022-12-17T10:59:53.640Z,40.5
2022-12-17T11:01:23.998Z,40.2
2022-12-17T11:02:54.094Z,41.2
2022-12-17T11:04:24.139Z,41.4
2022-12-17T11:05:59.323Z,41.2
2022-12-17T11:07:24.452Z,41.9
2022-12-17T11:08:54.621Z,41.8
2022-12-17T11:10:24.795Z,42.5
2022-12-17T11:11:54.952Z,42.1
2022-12-17T11:13:25.105Z,41.4
2022-12-17T11:14:55.271Z,42.6
2022-12-17T11:16:25.504Z,42.5
2022-12-17T11:17:55.604Z,42.8
2022-12-17T11:19:25.752Z,41.9
2022-12-17T11:20:55.960Z,42.5
2022-12-17T11:22:26.095Z,43
2022-12-17T11:23:56.248Z,42.2
2022-12-17T11:25:26.411Z,42.8
2022-12-17T11:26:56.597Z,42.6
2022-12-17T11:28:26.752Z,42.4
2022-12-17T11:29:56.896Z,42.9
2022-12-17T11:31:27.149Z,43.3
2022-12-17T11:32:57.249Z,41.7
2022-12-17T11:34:27.402Z,42.1
2022-12-17T11:35:57.577Z,42.8
2022-12-17T11:37:27.759Z,43.7
2022-12-17T11:38:57.887Z,42.8
2022-12-17T11:40:28.048Z,42.7
2022-12-17T11:41:58.229Z,42.6
2022-12-17T11:43:28.389Z,43.4
2022-12-17T11:44:58.552Z,42.8
2022-12-17T11:46:28.749Z,42.7
2022-12-17T11:47:59.500Z,43.4
2022-12-17T11:49:29.033Z,43.4
2022-12-17T11:50:59.198Z,42.8
2022-12-17T11:52:29.372Z,43
2022-12-17T11:53:59.560Z,42.9
2022-12-17T11:55:29.683Z,42.5
2022-12-17T11:56:59.869Z,42.7
2022-12-17T11:58:30.026Z,44
2022-12-17T12:00:03.955Z,42.7
2022-12-17T12:01:30.397Z,42.6
2022-12-17T12:03:00.726Z,42.5
2022-12-17T12:04:30.690Z,43.2
2022-12-17T12:06:00.843Z,42.6
2022-12-17T12:07:31.021Z,42.8
2022-12-17T12:09:01.177Z,42.5
2022-12-17T12:10:31.353Z,42
2022-12-17T12:12:01.514Z,41.9
2022-12-17T12:13:31.673Z,41.8
2022-12-17T12:15:01.835Z,42.8
2022-12-17T12:16:32.073Z,42.1
2022-12-17T12:18:02.169Z,41.9
2022-12-17T12:19:32.328Z,42
2022-12-17T12:21:02.477Z,42.4
2022-12-17T12:22:32.658Z,42.9
2022-12-17T12:24:02.812Z,42
2022-12-17T12:25:32.998Z,42.6
2022-12-17T12:27:03.147Z,42.3
2022-12-17T12:28:33.328Z,42.7
2022-12-17T12:30:03.459Z,42.3
2022-12-17T12:31:33.669Z,42.5
2022-12-17T12:33:08.391Z,42.5
2022-12-17T12:34:33.966Z,42.5
2022-12-17T12:36:04.111Z,41.5
2022-12-17T12:37:34.296Z,42.5
2022-12-17T12:39:04.591Z,43.3
2022-12-17T12:40:34.710Z,42.4
2022-12-17T12:42:04.916Z,44.5
2022-12-17T12:43:35.071Z,42.7
2022-12-17T12:45:05.241Z,42.5
2022-12-17T12:46:35.384Z,42.4
2022-12-17T12:48:05.571Z,42.4
2022-12-17T12:49:35.729Z,42.4
2022-12-17T12:51:05.887Z,42.5
2022-12-17T12:52:36.059Z,42.4
2022-12-17T12:54:06.215Z,41.8
2022-12-17T12:55:36.366Z,42.6
2022-12-17T12:57:06.521Z,42.5
2022-12-17T12:58:37.125Z,42.6
2022-12-17T13:00:06.869Z,43.3
2022-12-17T13:01:37.143Z,42.9
2022-12-17T13:03:07.318Z,41.4
2022-12-17T13:04:37.372Z,43
2022-12-17T13:06:07.512Z,42.3
2022-12-17T13:07:37.692Z,42.8
2022-12-17T13:09:07.852Z,43.7
2022-12-17T13:10:38.007Z,42.6
2022-12-17T13:12:08.174Z,44.5
2022-12-17T13:13:38.357Z,42.5
2022-12-17T13:15:08.552Z,42.9
2022-12-17T13:16:38.743Z,42
2022-12-17T13:18:08.851Z,42.5
2022-12-17T13:19:39.011Z,42.4
2022-12-17T13:21:09.169Z,42.7
2022-12-17T13:22:39.318Z,42.8
2022-12-17T13:24:09.501Z,42.5
2022-12-17T13:25:39.660Z,42.9
2022-12-17T13:27:09.820Z,41.6
2022-12-17T13:28:40.169Z,42.1
2022-12-17T13:30:10.152Z,43.2
2022-12-17T13:31:40.435Z,42.5
2022-12-17T13:33:10.475Z,42.8
2022-12-17T13:34:40.659Z,42.4
2022-12-17T13:36:10.815Z,42.3
2022-12-17T13:37:40.969Z,42.1
2022-12-17T13:39:11.155Z,43
2022-12-17T13:40:41.316Z,42.2
2022-12-17T13:42:11.465Z,41.6
2022-12-17T13:43:41.649Z,42.2
2022-12-17T13:45:11.841Z,43
2022-12-17T13:46:46.584Z,42.3
2022-12-17T13:48:12.174Z,42.3
2022-12-17T13:49:42.329Z,42.6
2022-12-17T13:51:12.486Z,42.4
2022-12-17T13:52:42.653Z,42.2
2022-12-17T13:54:12.799Z,42.3
2022-12-17T13:55:42.976Z,42.3
2022-12-17T13:57:13.129Z,42.1
2022-12-17T13:58:43.289Z,42.2
2022-12-17T14:00:13.468Z,41.5
2022-12-17T14:01:43.738Z,42.5
2022-12-17T14:03:13.878Z,42.6
2022-12-17T14:04:43.949Z,42.6
2022-12-17T14:06:14.110Z,43.1
2022-12-17T14:07:44.262Z,42.8
2022-12-17T14:09:14.421Z,43.3
2022-12-17T14:10:44.599Z,42.8
2022-12-17T14:12:14.767Z,42.5
2022-12-17T14:13:44.928Z,42.7
2022-12-17T14:15:15.108Z,42.7
2022-12-17T14:16:50.551Z,42.8
2022-12-17T14:18:15.453Z,42.1
2022-12-17T14:19:45.619Z,42.3
2022-12-17T14:21:15.772Z,41.9
2022-12-17T14:22:51.209Z,42.4
2022-12-17T14:24:16.100Z,42.3
2022-12-17T14:25:46.278Z,42.5
2022-12-17T14:27:16.436Z,42.3
2022-12-17T14:28:50.137Z,42.8
2022-12-17T14:30:16.771Z,42.8
2022-12-17T14:31:46.962Z,42.8
2022-12-17T14:33:17.084Z,42.8
2022-12-17T14:34:47.242Z,43
2022-12-17T14:36:17.455Z,41
2022-12-17T14:37:47.578Z,43.2
2022-12-17T14:39:17.731Z,42.8
2022-12-17T14:40:47.902Z,42.9
2022-12-17T14:42:18.058Z,43.7
2022-12-17T14:43:48.219Z,42.9
2022-12-17T14:45:18.382Z,44.6
2022-12-17T14:46:48.556Z,42.8
2022-12-17T14:48:18.719Z,42.8
2022-12-17T14:49:53.771Z,42.8
2022-12-17T14:51:19.067Z,43.4
2022-12-17T14:52:49.248Z,42.9
2022-12-17T14:54:19.378Z,42.1
2022-12-17T14:55:53.575Z,42.8
2022-12-17T14:57:19.733Z,43.3
2022-12-17T14:58:49.882Z,43.1
2022-12-17T15:00:20.036Z,42.8
2022-12-17T15:01:55.707Z,42.8
2022-12-17T15:03:20.492Z,43.5
2022-12-17T15:04:50.536Z,42.8
2022-12-17T15:06:20.717Z,42.5
2022-12-17T15:07:50.882Z,42.8
2022-12-17T15:09:21.088Z,43.2
2022-12-17T15:10:51.219Z,42.8
2022-12-17T15:12:21.401Z,42.8
2022-12-17T15:13:56.249Z,43.1
2022-12-17T15:15:21.733Z,42.7
2022-12-17T15:16:51.913Z,42.9
2022-12-17T15:18:22.064Z,42.9
2022-12-17T15:19:56.067Z,42.9
2022-12-17T15:21:22.382Z,43.5
2022-12-17T15:22:52.554Z,44.4
2022-12-17T15:24:22.709Z,42.9
2022-12-17T15:25:52.891Z,43.1
2022-12-17T15:27:23.058Z,43.1
2022-12-17T15:28:53.233Z,43
2022-12-17T15:30:23.377Z,42.9
2022-12-17T15:31:53.545Z,43.6
2022-12-17T15:33:23.736Z,43.5
2022-12-17T15:34:53.893Z,44.2
2022-12-17T15:36:24.048Z,43.5
2022-12-17T15:37:54.236Z,42.5
2022-12-17T15:39:24.391Z,43.5
2022-12-17T15:40:54.568Z,43.5
2022-12-17T15:42:24.701Z,43.6
2022-12-17T15:43:54.876Z,43.5
2022-12-17T15:45:25.030Z,43.5
2022-12-17T15:46:55.191Z,42.2
2022-12-17T15:48:25.370Z,43.6
2022-12-17T15:49:55.530Z,43.6
2022-12-17T15:51:25.686Z,43.5
2022-12-17T15:52:55.882Z,44.1
2022-12-17T15:54:26.051Z,43.6
2022-12-17T15:55:56.215Z,43.5
2022-12-17T15:57:26.388Z,43.7
2022-12-17T15:58:56.543Z,43.7
2022-12-17T16:00:26.705Z,43.6
2022-12-17T16:01:57.003Z,43.5
2022-12-17T16:03:27.114Z,43.5
2022-12-17T16:04:57.203Z,43.8
2022-12-17T16:06:27.361Z,43.5
2022-12-17T16:07:57.519Z,43.5
2022-12-17T16:09:27.693Z,43.5
2022-12-17T16:10:57.853Z,43.2
2022-12-17T16:12:27.997Z,43.7
2022-12-17T16:13:58.198Z,43
2022-12-17T16:15:28.427Z,44.1
2022-12-17T16:16:58.483Z,45.3
2022-12-17T16:18:28.688Z,43.6
2022-12-17T16:19:58.842Z,43.2
2022-12-17T16:21:28.993Z,43.7
2022-12-17T16:22:59.161Z,43.5
2022-12-17T16:24:29.346Z,43.7
2022-12-17T16:25:59.524Z,45.2
2022-12-17T16:27:29.679Z,43.9
2022-12-17T16:28:59.867Z,43.6
2022-12-17T16:30:30.050Z,44.1
2022-12-17T16:32:00.174Z,43.8
2022-12-17T16:33:35.348Z,43.1
2022-12-17T16:35:00.521Z,43.6
2022-12-17T16:36:30.671Z,43.8
2022-12-17T16:38:00.828Z,43.7
2022-12-17T16:39:31.016Z,43.7
2022-12-17T16:41:01.170Z,44
2022-12-17T16:42:31.367Z,44.4
2022-12-17T16:44:01.540Z,44.1
2022-12-17T16:45:31.723Z,43.6
2022-12-17T16:47:01.916Z,44.1
2022-12-17T16:48:32.015Z,43.7
2022-12-17T16:50:02.199Z,43.7
2022-12-17T16:51:32.356Z,44.6
2022-12-17T16:53:02.509Z,44
2022-12-17T16:54:32.690Z,43.7
2022-12-17T16:56:02.847Z,44.1
2022-12-17T16:57:32.999Z,43.7
2022-12-17T16:59:03.153Z,43.6
2022-12-17T17:00:33.345Z,43.7
2022-12-17T17:02:03.690Z,43.6
2022-12-17T17:03:33.706Z,43.3
2022-12-17T17:05:03.837Z,43.2
2022-12-17T17:06:34.297Z,43.9
2022-12-17T17:08:04.143Z,43.3
2022-12-17T17:09:34.297Z,41.8
2022-12-17T17:11:04.487Z,43.8
2022-12-17T17:12:34.642Z,45
2022-12-17T17:14:04.801Z,43.3
2022-12-17T17:15:34.981Z,43.8
2022-12-17T17:17:05.172Z,43.4
2022-12-17T17:18:35.288Z,44.8
2022-12-17T17:20:05.476Z,43.4
2022-12-17T17:21:35.629Z,43.5
2022-12-17T17:23:05.789Z,43.2
2022-12-17T17:24:35.941Z,43.7
2022-12-17T17:26:06.122Z,43
2022-12-17T17:27:36.277Z,42.9
2022-12-17T17:29:06.430Z,42.9
2022-12-17T17:30:36.619Z,43
2022-12-17T17:32:11.241Z,43.2
2022-12-17T17:33:36.955Z,43.1
2022-12-17T17:35:07.083Z,43
2022-12-17T17:36:37.268Z,43
2022-12-17T17:38:07.445Z,43.1
2022-12-17T17:39:37.622Z,43.3
2022-12-17T17:41:07.780Z,43.1
2022-12-17T17:42:37.938Z,41.9
2022-12-17T17:44:08.093Z,43
2022-12-17T17:45:38.276Z,43.7
2022-12-17T17:47:08.523Z,43.1
2022-12-17T17:48:38.937Z,41.8
2022-12-17T17:50:08.773Z,42.9
2022-12-17T17:52:08.250Z,43
2022-12-17T17:53:09.107Z,43.1
2022-12-17T17:54:39.269Z,43
2022-12-17T17:56:09.432Z,43
2022-12-17T17:57:39.618Z,42.9
2022-12-17T17:59:09.773Z,43.3
2022-12-17T18:00:39.931Z,43.1
2022-12-17T18:02:10.153Z,43.1
2022-12-17T18:03:40.316Z,42.6
2022-12-17T18:05:10.451Z,43.2
2022-12-17T18:06:42.958Z,42.9
2022-12-17T18:08:10.789Z,43.1
2022-12-17T18:09:40.936Z,43.2
2022-12-17T18:11:11.108Z,44.9
2022-12-17T18:12:41.343Z,43.2
2022-12-17T18:14:11.464Z,43
2022-12-17T18:15:41.619Z,43.1
2022-12-17T18:17:11.801Z,42.4
2022-12-17T18:18:41.980Z,43.4
2022-12-17T18:20:12.162Z,42.8
2022-12-17T18:21:42.284Z,43.1
2022-12-17T18:23:12.703Z,42.5
2022-12-17T18:24:42.853Z,43.5
2022-12-17T18:26:13.007Z,43
2022-12-17T18:27:43.193Z,44.1
2022-12-17T18:29:13.342Z,43
2022-12-17T18:30:43.510Z,43.5
2022-12-17T18:32:13.662Z,42.8
2022-12-17T18:33:43.849Z,42.8
2022-12-17T18:35:14.008Z,42.9
2022-12-17T18:36:44.187Z,43.6
2022-12-17T18:38:14.354Z,42.7
2022-12-17T18:39:44.513Z,42.8
2022-12-17T18:41:14.667Z,42.8
2022-12-17T18:42:44.858Z,43.2
2022-12-17T18:44:15.002Z,42.8
2022-12-17T18:45:45.474Z,40.8
2022-12-17T18:47:15.363Z,42.6
2022-12-17T18:48:45.504Z,43.2
2022-12-17T18:50:15.659Z,43
2022-12-17T18:51:45.816Z,40.9
2022-12-17T18:53:16.021Z,42.5
2022-12-17T18:54:46.160Z,42.8
2022-12-17T18:56:26.857Z,42.6
2022-12-17T18:57:46.473Z,43
2022-12-17T18:59:16.654Z,42.7
2022-12-17T19:00:46.885Z,42.6
2022-12-17T19:02:17.058Z,42.5
2022-12-17T19:03:47.142Z,43.7
2022-12-17T19:05:17.297Z,42.7
2022-12-17T19:06:47.449Z,43.3
2022-12-17T19:08:17.668Z,42.6
2022-12-17T19:09:47.800Z,42.8
2022-12-17T19:11:17.956Z,42.7
2022-12-17T19:12:48.107Z,43.3
2022-12-17T19:14:18.290Z,42.7
2022-12-17T19:15:48.458Z,42.6
2022-12-17T19:17:18.605Z,42.5
2022-12-17T19:18:48.792Z,42.3
2022-12-17T19:20:18.942Z,42.6
2022-12-17T19:21:49.091Z,43.2
2022-12-17T19:23:19.284Z,42.5
2022-12-17T19:24:49.464Z,42.7
2022-12-17T19:26:19.585Z,42.5
2022-12-17T19:27:49.742Z,42.3
2022-12-17T19:29:19.924Z,41.9
2022-12-17T19:30:50.081Z,42.2
2022-12-17T19:32:20.238Z,42.3
2022-12-17T19:33:50.449Z,42.2
2022-12-17T19:35:20.573Z,41.4
2022-12-17T19:36:50.726Z,42.4
2022-12-17T19:38:20.880Z,41.9
2022-12-17T19:39:51.089Z,42.3
2022-12-17T19:41:21.228Z,42.7
2022-12-17T19:42:51.381Z,42.3
2022-12-17T19:44:21.572Z,41.7
2022-12-17T19:45:51.761Z,42.2
2022-12-17T19:47:21.882Z,42.4
2022-12-17T19:48:52.372Z,42.8
2022-12-17T19:50:22.219Z,40.5
2022-12-17T19:51:52.374Z,42.4
2022-12-17T19:53:22.525Z,42.2
2022-12-17T19:54:52.715Z,42.4
2022-12-17T19:56:22.887Z,43.8
2022-12-17T19:57:53.018Z,42.3
2022-12-17T19:59:23.193Z,42.7
2022-12-17T20:00:53.408Z,42.7
2022-12-17T20:02:25.970Z,42.3
2022-12-17T20:03:53.674Z,42.2
2022-12-17T20:05:23.850Z,42.9
2022-12-17T20:06:54.003Z,44.8
2022-12-17T20:08:24.154Z,42.8